sensor_id;sensor_type;location;lat;lon;timestamp;P1;durP1;ratioP1;P2;durP2;ratioP2
39322;SDS011;25036;53.638;10.134;2023-04-24T00:00:56;3.87;;;2.50;;
39322;SDS011;25036;53.638;10.134;2023-04-24T00:01:57;2.22;;;2.08;;
39322;SDS011;25036;53.638;10.134;2023-04-24T00:02:58;2.92;;;2.50;;
39322;SDS011;25036;53.638;10.134;2023-04-24T00:03:58;2.60;;;2.40;;
39322;SDS011;25036;53.638;10.134;2023-04-24T00:04:59;2.40;;;2.20;;
39322;SDS011;25036;53.638;10.134;2023-04-24T00:06:02;3.20;;;2.63;;
39322;SDS011;25036;53.638;10.134;2023-04-24T00:07:02;4.25;;;2.30;;
39322;SDS011;25036;53.638;10.134;2023-04-24T00:08:02;3.47;;;2.20;;
39322;SDS011;25036;53.638;10.134;2023-04-24T00:09:03;2.60;;;2.40;;
39322;SDS011;25036;53.638;10.134;2023-04-24T00:10:04;2.50;;;2.30;;
39322;SDS011;25036;53.638;10.134;2023-04-24T00:11:05;2.72;;;2.50;;
39322;SDS011;25036;53.638;10.134;2023-04-24T00:12:05;3.25;;;2.33;;
39322;SDS011;25036;53.638;10.134;2023-04-24T00:13:05;3.00;;;2.63;;
39322;SDS011;25036;53.638;10.134;2023-04-24T00:14:05;7.40;;;3.03;;
39322;SDS011;25036;53.638;10.134;2023-04-24T00:15:05;3.03;;;2.20;;
39322;SDS011;25036;53.638;10.134;2023-04-24T00:16:06;4.40;;;2.63;;
39322;SDS011;25036;53.638;10.134;2023-04-24T00:17:06;2.87;;;2.67;;
39322;SDS011;25036;53.638;10.134;2023-04-24T00:18:06;4.67;;;2.90;;
39322;SDS011;25036;53.638;10.134;2023-04-24T00:19:06;2.80;;;2.60;;
39322;SDS011;25036;53.638;10.134;2023-04-24T00:20:06;3.05;;;2.55;;
39322;SDS011;25036;53.638;10.134;2023-04-24T00:21:07;3.03;;;2.72;;
39322;SDS011;25036;53.638;10.134;2023-04-24T00:22:07;3.13;;;2.65;;
39322;SDS011;25036;53.638;10.134;2023-04-24T00:23:07;4.03;;;2.70;;
39322;SDS011;25036;53.638;10.134;2023-04-24T00:24:07;3.75;;;2.70;;
39322;SDS011;25036;53.638;10.134;2023-04-24T00:25:11;2.60;;;2.40;;
39322;SDS011;25036;53.638;10.134;2023-04-24T00:26:11;3.07;;;2.50;;
39322;SDS011;25036;53.638;10.134;2023-04-24T00:27:11;3.03;;;2.30;;
39322;SDS011;25036;53.638;10.134;2023-04-24T00:28:11;2.80;;;2.60;;
39322;SDS011;25036;53.638;10.134;2023-04-24T00:29:12;3.07;;;2.77;;
39322;SDS011;25036;53.638;10.134;2023-04-24T00:30:12;3.53;;;2.42;;
39322;SDS011;25036;53.638;10.134;2023-04-24T00:31:12;3.13;;;2.83;;
39322;SDS011;25036;53.638;10.134;2023-04-24T00:32:13;2.90;;;2.70;;
39322;SDS011;25036;53.638;10.134;2023-04-24T00:33:13;3.33;;;2.65;;
39322;SDS011;25036;53.638;10.134;2023-04-24T00:34:13;3.50;;;2.70;;
39322;SDS011;25036;53.638;10.134;2023-04-24T00:35:13;2.63;;;2.43;;
39322;SDS011;25036;53.638;10.134;2023-04-24T00:36:14;3.45;;;2.58;;
39322;SDS011;25036;53.638;10.134;2023-04-24T00:37:15;3.67;;;2.90;;
39322;SDS011;25036;53.638;10.134;2023-04-24T00:38:15;4.10;;;3.03;;
39322;SDS011;25036;53.638;10.134;2023-04-24T00:39:15;3.00;;;2.70;;
39322;SDS011;25036;53.638;10.134;2023-04-24T00:40:15;3.83;;;3.10;;
39322;SDS011;25036;53.638;10.134;2023-04-24T00:41:15;3.78;;;3.30;;
39322;SDS011;25036;53.638;10.134;2023-04-24T00:42:16;3.00;;;2.78;;
39322;SDS011;25036;53.638;10.134;2023-04-24T00:43:16;3.30;;;3.00;;
39322;SDS011;25036;53.638;10.134;2023-04-24T00:44:16;3.40;;;2.90;;
39322;SDS011;25036;53.638;10.134;2023-04-24T00:45:16;3.03;;;2.75;;
39322;SDS011;25036;53.638;10.134;2023-04-24T00:46:16;3.10;;;2.75;;
39322;SDS011;25036;53.638;10.134;2023-04-24T00:47:17;2.97;;;2.50;;
39322;SDS011;25036;53.638;10.134;2023-04-24T00:48:18;2.92;;;2.70;;
39322;SDS011;25036;53.638;10.134;2023-04-24T00:49:20;3.08;;;2.70;;
39322;SDS011;25036;53.638;10.134;2023-04-24T00:50:20;3.60;;;2.83;;
39322;SDS011;25036;53.638;10.134;2023-04-24T00:51:21;4.45;;;2.88;;
39322;SDS011;25036;53.638;10.134;2023-04-24T00:52:21;4.72;;;2.92;;
39322;SDS011;25036;53.638;10.134;2023-04-24T00:53:24;2.90;;;2.70;;
39322;SDS011;25036;53.638;10.134;2023-04-24T00:54:24;3.33;;;3.00;;
39322;SDS011;25036;53.638;10.134;2023-04-24T00:55:25;3.72;;;2.53;;
39322;SDS011;25036;53.638;10.134;2023-04-24T00:56:25;3.00;;;2.80;;
39322;SDS011;25036;53.638;10.134;2023-04-24T00:57:26;3.10;;;2.80;;
39322;SDS011;25036;53.638;10.134;2023-04-24T00:58:26;3.60;;;2.70;;
39322;SDS011;25036;53.638;10.134;2023-04-24T00:59:27;3.35;;;3.05;;
39322;SDS011;25036;53.638;10.134;2023-04-24T01:00:27;5.33;;;3.23;;
39322;SDS011;25036;53.638;10.134;2023-04-24T01:01:27;3.30;;;3.00;;
39322;SDS011;25036;53.638;10.134;2023-04-24T01:02:27;3.70;;;3.17;;
39322;SDS011;25036;53.638;10.134;2023-04-24T01:03:30;3.63;;;3.13;;
39322;SDS011;25036;53.638;10.134;2023-04-24T01:04:31;3.42;;;3.13;;
39322;SDS011;25036;53.638;10.134;2023-04-24T01:05:31;3.92;;;3.55;;
39322;SDS011;25036;53.638;10.134;2023-04-24T01:06:31;3.90;;;2.90;;
39322;SDS011;25036;53.638;10.134;2023-04-24T01:07:32;2.75;;;2.55;;
39322;SDS011;25036;53.638;10.134;2023-04-24T01:08:32;3.50;;;3.20;;
39322;SDS011;25036;53.638;10.134;2023-04-24T01:09:34;3.53;;;3.03;;
39322;SDS011;25036;53.638;10.134;2023-04-24T01:10:35;3.92;;;3.03;;
39322;SDS011;25036;53.638;10.134;2023-04-24T01:11:36;3.60;;;3.30;;
39322;SDS011;25036;53.638;10.134;2023-04-24T01:12:36;4.75;;;3.55;;
39322;SDS011;25036;53.638;10.134;2023-04-24T01:13:37;3.70;;;3.30;;
39322;SDS011;25036;53.638;10.134;2023-04-24T01:14:37;3.70;;;3.40;;
39322;SDS011;25036;53.638;10.134;2023-04-24T01:15:37;3.83;;;3.25;;
39322;SDS011;25036;53.638;10.134;2023-04-24T01:16:37;3.83;;;3.30;;
39322;SDS011;25036;53.638;10.134;2023-04-24T01:17:39;4.13;;;3.78;;
39322;SDS011;25036;53.638;10.134;2023-04-24T01:18:39;3.88;;;3.58;;
39322;SDS011;25036;53.638;10.134;2023-04-24T01:19:39;4.80;;;3.08;;
39322;SDS011;25036;53.638;10.134;2023-04-24T01:20:40;3.60;;;3.30;;
39322;SDS011;25036;53.638;10.134;2023-04-24T01:21:40;4.00;;;3.13;;
39322;SDS011;25036;53.638;10.134;2023-04-24T01:22:42;3.63;;;3.33;;
39322;SDS011;25036;53.638;10.134;2023-04-24T01:23:43;3.20;;;2.95;;
39322;SDS011;25036;53.638;10.134;2023-04-24T01:24:43;3.75;;;3.45;;
39322;SDS011;25036;53.638;10.134;2023-04-24T01:25:43;3.50;;;3.08;;
39322;SDS011;25036;53.638;10.134;2023-04-24T01:26:43;3.45;;;3.13;;
39322;SDS011;25036;53.638;10.134;2023-04-24T01:27:44;3.35;;;3.05;;
39322;SDS011;25036;53.638;10.134;2023-04-24T01:28:44;3.78;;;3.40;;
39322;SDS011;25036;53.638;10.134;2023-04-24T01:29:44;3.43;;;2.83;;
39322;SDS011;25036;53.638;10.134;2023-04-24T01:30:45;2.80;;;2.60;;
39322;SDS011;25036;53.638;10.134;2023-04-24T01:31:45;3.15;;;2.80;;
39322;SDS011;25036;53.638;10.134;2023-04-24T01:32:45;2.83;;;2.63;;
39322;SDS011;25036;53.638;10.134;2023-04-24T01:33:45;3.95;;;3.33;;
39322;SDS011;25036;53.638;10.134;2023-04-24T01:34:45;4.15;;;3.10;;
39322;SDS011;25036;53.638;10.134;2023-04-24T01:35:46;3.10;;;2.90;;
39322;SDS011;25036;53.638;10.134;2023-04-24T01:36:47;3.70;;;2.83;;
39322;SDS011;25036;53.638;10.134;2023-04-24T01:37:47;3.78;;;3.17;;
39322;SDS011;25036;53.638;10.134;2023-04-24T01:38:47;2.97;;;2.67;;
39322;SDS011;25036;53.638;10.134;2023-04-24T01:39:48;3.07;;;2.87;;
39322;SDS011;25036;53.638;10.134;2023-04-24T01:40:48;3.15;;;2.95;;
39322;SDS011;25036;53.638;10.134;2023-04-24T01:41:49;2.80;;;2.60;;
39322;SDS011;25036;53.638;10.134;2023-04-24T01:42:50;3.15;;;2.60;;
39322;SDS011;25036;53.638;10.134;2023-04-24T01:43:50;2.83;;;2.63;;
39322;SDS011;25036;53.638;10.134;2023-04-24T01:44:51;2.80;;;2.60;;
39322;SDS011;25036;53.638;10.134;2023-04-24T01:45:51;3.08;;;2.60;;
39322;SDS011;25036;53.638;10.134;2023-04-24T01:46:51;3.77;;;2.70;;
39322;SDS011;25036;53.638;10.134;2023-04-24T01:47:53;2.75;;;2.55;;
39322;SDS011;25036;53.638;10.134;2023-04-24T01:48:53;3.70;;;2.88;;
39322;SDS011;25036;53.638;10.134;2023-04-24T01:49:53;2.75;;;2.55;;
39322;SDS011;25036;53.638;10.134;2023-04-24T01:50:53;2.93;;;2.33;;
39322;SDS011;25036;53.638;10.134;2023-04-24T01:51:53;4.20;;;2.25;;
39322;SDS011;25036;53.638;10.134;2023-04-24T01:52:54;3.00;;;2.60;;
39322;SDS011;25036;53.638;10.134;2023-04-24T01:53:54;2.22;;;2.03;;
39322;SDS011;25036;53.638;10.134;2023-04-24T01:54:55;2.60;;;2.40;;
39322;SDS011;25036;53.638;10.134;2023-04-24T01:55:55;2.75;;;1.90;;
39322;SDS011;25036;53.638;10.134;2023-04-24T01:56:55;3.20;;;2.53;;
39322;SDS011;25036;53.638;10.134;2023-04-24T01:57:56;2.60;;;2.30;;
39322;SDS011;25036;53.638;10.134;2023-04-24T01:58:56;2.10;;;1.95;;
39322;SDS011;25036;53.638;10.134;2023-04-24T01:59:57;2.35;;;2.15;;
39322;SDS011;25036;53.638;10.134;2023-04-24T02:00:57;2.50;;;2.30;;
39322;SDS011;25036;53.638;10.134;2023-04-24T02:01:58;2.85;;;2.30;;
39322;SDS011;25036;53.638;10.134;2023-04-24T02:02:58;1.97;;;1.80;;
39322;SDS011;25036;53.638;10.134;2023-04-24T02:03:59;2.27;;;1.87;;
39322;SDS011;25036;53.638;10.134;2023-04-24T02:04:59;2.05;;;1.95;;
39322;SDS011;25036;53.638;10.134;2023-04-24T02:05:59;3.45;;;2.13;;
39322;SDS011;25036;53.638;10.134;2023-04-24T02:06:59;2.17;;;1.97;;
39322;SDS011;25036;53.638;10.134;2023-04-24T02:07:59;3.43;;;2.77;;
39322;SDS011;25036;53.638;10.134;2023-04-24T02:09:00;2.37;;;1.90;;
39322;SDS011;25036;53.638;10.134;2023-04-24T02:10:00;2.13;;;1.92;;
39322;SDS011;25036;53.638;10.134;2023-04-24T02:11:00;1.97;;;1.70;;
39322;SDS011;25036;53.638;10.134;2023-04-24T02:12:01;2.20;;;1.80;;
39322;SDS011;25036;53.638;10.134;2023-04-24T02:13:02;2.50;;;2.27;;
39322;SDS011;25036;53.638;10.134;2023-04-24T02:14:02;2.08;;;1.88;;
39322;SDS011;25036;53.638;10.134;2023-04-24T02:15:02;2.33;;;2.13;;
39322;SDS011;25036;53.638;10.134;2023-04-24T02:16:02;1.85;;;1.70;;
39322;SDS011;25036;53.638;10.134;2023-04-24T02:17:03;1.70;;;1.60;;
39322;SDS011;25036;53.638;10.134;2023-04-24T02:18:03;3.38;;;1.83;;
39322;SDS011;25036;53.638;10.134;2023-04-24T02:19:03;2.85;;;2.00;;
39322;SDS011;25036;53.638;10.134;2023-04-24T02:20:04;1.88;;;1.50;;
39322;SDS011;25036;53.638;10.134;2023-04-24T02:21:05;2.35;;;1.73;;
39322;SDS011;25036;53.638;10.134;2023-04-24T02:22:05;2.53;;;1.80;;
39322;SDS011;25036;53.638;10.134;2023-04-24T02:23:05;2.25;;;2.05;;
39322;SDS011;25036;53.638;10.134;2023-04-24T02:24:05;1.83;;;1.73;;
39322;SDS011;25036;53.638;10.134;2023-04-24T02:25:06;2.53;;;1.73;;
39322;SDS011;25036;53.638;10.134;2023-04-24T02:26:06;1.75;;;1.65;;
39322;SDS011;25036;53.638;10.134;2023-04-24T02:27:06;2.63;;;1.73;;
39322;SDS011;25036;53.638;10.134;2023-04-24T02:28:06;2.08;;;1.88;;
39322;SDS011;25036;53.638;10.134;2023-04-24T02:29:07;2.47;;;1.67;;
39322;SDS011;25036;53.638;10.134;2023-04-24T02:30:07;2.97;;;2.07;;
39322;SDS011;25036;53.638;10.134;2023-04-24T02:31:08;2.22;;;1.60;;
39322;SDS011;25036;53.638;10.134;2023-04-24T02:32:08;1.90;;;1.70;;
39322;SDS011;25036;53.638;10.134;2023-04-24T02:33:11;2.10;;;1.83;;
39322;SDS011;25036;53.638;10.134;2023-04-24T02:34:11;2.00;;;1.80;;
39322;SDS011;25036;53.638;10.134;2023-04-24T02:35:12;2.20;;;2.00;;
39322;SDS011;25036;53.638;10.134;2023-04-24T02:36:12;1.70;;;1.60;;
39322;SDS011;25036;53.638;10.134;2023-04-24T02:37:13;2.17;;;1.75;;
39322;SDS011;25036;53.638;10.134;2023-04-24T02:38:13;1.87;;;1.67;;
39322;SDS011;25036;53.638;10.134;2023-04-24T02:39:13;1.93;;;1.77;;
39322;SDS011;25036;53.638;10.134;2023-04-24T02:40:14;2.05;;;1.80;;
39322;SDS011;25036;53.638;10.134;2023-04-24T02:41:14;2.10;;;1.65;;
39322;SDS011;25036;53.638;10.134;2023-04-24T02:42:14;1.75;;;1.65;;
39322;SDS011;25036;53.638;10.134;2023-04-24T02:43:15;2.53;;;1.75;;
39322;SDS011;25036;53.638;10.134;2023-04-24T02:44:15;1.87;;;1.77;;
39322;SDS011;25036;53.638;10.134;2023-04-24T02:45:17;2.88;;;1.85;;
39322;SDS011;25036;53.638;10.134;2023-04-24T02:46:17;2.17;;;1.70;;
39322;SDS011;25036;53.638;10.134;2023-04-24T02:47:17;1.83;;;1.73;;
39322;SDS011;25036;53.638;10.134;2023-04-24T02:48:17;1.70;;;1.60;;
39322;SDS011;25036;53.638;10.134;2023-04-24T02:49:18;2.42;;;2.10;;
39322;SDS011;25036;53.638;10.134;2023-04-24T02:50:18;2.07;;;1.60;;
39322;SDS011;25036;53.638;10.134;2023-04-24T02:51:18;1.80;;;1.70;;
39322;SDS011;25036;53.638;10.134;2023-04-24T02:52:18;2.27;;;1.53;;
39322;SDS011;25036;53.638;10.134;2023-04-24T02:53:18;2.20;;;1.83;;
39322;SDS011;25036;53.638;10.134;2023-04-24T02:54:18;2.53;;;1.73;;
39322;SDS011;25036;53.638;10.134;2023-04-24T02:55:19;1.67;;;1.57;;
39322;SDS011;25036;53.638;10.134;2023-04-24T02:56:19;2.85;;;1.80;;
39322;SDS011;25036;53.638;10.134;2023-04-24T02:57:19;1.63;;;1.52;;
39322;SDS011;25036;53.638;10.134;2023-04-24T02:58:19;1.70;;;1.60;;
39322;SDS011;25036;53.638;10.134;2023-04-24T02:59:19;2.80;;;1.50;;
39322;SDS011;25036;53.638;10.134;2023-04-24T03:00:20;1.50;;;1.40;;
39322;SDS011;25036;53.638;10.134;2023-04-24T03:01:20;1.98;;;1.67;;
39322;SDS011;25036;53.638;10.134;2023-04-24T03:02:20;1.75;;;1.50;;
39322;SDS011;25036;53.638;10.134;2023-04-24T03:03:20;2.17;;;2.00;;
39322;SDS011;25036;53.638;10.134;2023-04-24T03:04:21;2.15;;;1.35;;
39322;SDS011;25036;53.638;10.134;2023-04-24T03:05:22;1.67;;;1.50;;
39322;SDS011;25036;53.638;10.134;2023-04-24T03:06:22;1.40;;;1.30;;
39322;SDS011;25036;53.638;10.134;2023-04-24T03:07:22;1.52;;;1.42;;
39322;SDS011;25036;53.638;10.134;2023-04-24T03:08:23;1.70;;;1.30;;
39322;SDS011;25036;53.638;10.134;2023-04-24T03:09:24;1.50;;;1.40;;
39322;SDS011;25036;53.638;10.134;2023-04-24T03:10:24;1.50;;;1.40;;
39322;SDS011;25036;53.638;10.134;2023-04-24T03:11:24;1.20;;;1.10;;
39322;SDS011;25036;53.638;10.134;2023-04-24T03:12:25;1.15;;;1.05;;
39322;SDS011;25036;53.638;10.134;2023-04-24T03:13:25;1.40;;;1.30;;
39322;SDS011;25036;53.638;10.134;2023-04-24T03:14:25;1.20;;;1.07;;
39322;SDS011;25036;53.638;10.134;2023-04-24T03:15:26;1.02;;;1.00;;
39322;SDS011;25036;53.638;10.134;2023-04-24T03:16:26;1.63;;;1.35;;
39322;SDS011;25036;53.638;10.134;2023-04-24T03:17:26;1.00;;;0.90;;
39322;SDS011;25036;53.638;10.134;2023-04-24T03:18:26;1.37;;;1.07;;
39322;SDS011;25036;53.638;10.134;2023-04-24T03:19:26;3.33;;;1.20;;
39322;SDS011;25036;53.638;10.134;2023-04-24T03:20:26;1.70;;;1.00;;
39322;SDS011;25036;53.638;10.134;2023-04-24T03:21:27;0.88;;;0.88;;
39322;SDS011;25036;53.638;10.134;2023-04-24T03:22:27;1.45;;;1.00;;
39322;SDS011;25036;53.638;10.134;2023-04-24T03:23:27;1.70;;;1.27;;
39322;SDS011;25036;53.638;10.134;2023-04-24T03:24:27;1.10;;;1.00;;
39322;SDS011;25036;53.638;10.134;2023-04-24T03:25:28;1.58;;;0.80;;
39322;SDS011;25036;53.638;10.134;2023-04-24T03:26:28;0.93;;;0.93;;
39322;SDS011;25036;53.638;10.134;2023-04-24T03:27:28;1.87;;;0.97;;
39322;SDS011;25036;53.638;10.134;2023-04-24T03:28:28;0.93;;;0.93;;
39322;SDS011;25036;53.638;10.134;2023-04-24T03:29:28;1.90;;;1.20;;
39322;SDS011;25036;53.638;10.134;2023-04-24T03:30:29;0.80;;;0.75;;
39322;SDS011;25036;53.638;10.134;2023-04-24T03:31:29;2.10;;;0.85;;
39322;SDS011;25036;53.638;10.134;2023-04-24T03:32:29;0.90;;;0.80;;
39322;SDS011;25036;53.638;10.134;2023-04-24T03:33:32;1.08;;;0.80;;
39322;SDS011;25036;53.638;10.134;2023-04-24T03:34:32;1.03;;;0.83;;
39322;SDS011;25036;53.638;10.134;2023-04-24T03:35:32;2.30;;;0.80;;
39322;SDS011;25036;53.638;10.134;2023-04-24T03:36:32;1.52;;;0.90;;
39322;SDS011;25036;53.638;10.134;2023-04-24T03:37:32;0.70;;;0.70;;
39322;SDS011;25036;53.638;10.134;2023-04-24T03:38:32;0.70;;;0.70;;
39322;SDS011;25036;53.638;10.134;2023-04-24T03:39:32;0.70;;;0.70;;
39322;SDS011;25036;53.638;10.134;2023-04-24T03:40:33;2.33;;;0.80;;
39322;SDS011;25036;53.638;10.134;2023-04-24T03:41:33;1.52;;;0.73;;
39322;SDS011;25036;53.638;10.134;2023-04-24T03:42:33;1.20;;;1.10;;
39322;SDS011;25036;53.638;10.134;2023-04-24T03:43:33;0.80;;;0.80;;
39322;SDS011;25036;53.638;10.134;2023-04-24T03:44:34;0.82;;;0.80;;
39322;SDS011;25036;53.638;10.134;2023-04-24T03:45:35;1.13;;;0.77;;
39322;SDS011;25036;53.638;10.134;2023-04-24T03:46:35;1.70;;;0.80;;
39322;SDS011;25036;53.638;10.134;2023-04-24T03:47:35;0.98;;;0.75;;
39322;SDS011;25036;53.638;10.134;2023-04-24T03:48:35;0.93;;;0.70;;
39322;SDS011;25036;53.638;10.134;2023-04-24T03:49:35;0.65;;;0.60;;
39322;SDS011;25036;53.638;10.134;2023-04-24T03:50:35;1.17;;;1.07;;
39322;SDS011;25036;53.638;10.134;2023-04-24T03:51:36;0.80;;;0.70;;
39322;SDS011;25036;53.638;10.134;2023-04-24T03:52:36;0.88;;;0.73;;
39322;SDS011;25036;53.638;10.134;2023-04-24T03:53:36;1.10;;;0.60;;
39322;SDS011;25036;53.638;10.134;2023-04-24T03:54:37;1.50;;;0.75;;
39322;SDS011;25036;53.638;10.134;2023-04-24T03:55:37;0.50;;;0.50;;
39322;SDS011;25036;53.638;10.134;2023-04-24T03:56:37;2.07;;;0.60;;
39322;SDS011;25036;53.638;10.134;2023-04-24T03:57:37;0.90;;;0.60;;
39322;SDS011;25036;53.638;10.134;2023-04-24T03:58:37;1.47;;;0.97;;
39322;SDS011;25036;53.638;10.134;2023-04-24T03:59:37;0.70;;;0.70;;
39322;SDS011;25036;53.638;10.134;2023-04-24T04:00:37;1.07;;;0.60;;
39322;SDS011;25036;53.638;10.134;2023-04-24T04:01:40;1.20;;;0.73;;
39322;SDS011;25036;53.638;10.134;2023-04-24T04:02:40;0.67;;;0.50;;
39322;SDS011;25036;53.638;10.134;2023-04-24T04:03:40;0.98;;;0.60;;
39322;SDS011;25036;53.638;10.134;2023-04-24T04:04:40;1.80;;;0.80;;
39322;SDS011;25036;53.638;10.134;2023-04-24T04:05:40;1.10;;;1.00;;
39322;SDS011;25036;53.638;10.134;2023-04-24T04:06:40;1.27;;;0.80;;
39322;SDS011;25036;53.638;10.134;2023-04-24T04:07:41;1.52;;;0.90;;
39322;SDS011;25036;53.638;10.134;2023-04-24T04:08:41;0.70;;;0.70;;
39322;SDS011;25036;53.638;10.134;2023-04-24T04:09:41;0.73;;;0.60;;
39322;SDS011;25036;53.638;10.134;2023-04-24T04:10:41;1.33;;;0.67;;
39322;SDS011;25036;53.638;10.134;2023-04-24T04:11:41;0.60;;;0.60;;
39322;SDS011;25036;53.638;10.134;2023-04-24T04:12:41;0.70;;;0.70;;
39322;SDS011;25036;53.638;10.134;2023-04-24T04:13:42;0.87;;;0.87;;
39322;SDS011;25036;53.638;10.134;2023-04-24T04:14:42;0.50;;;0.50;;
39322;SDS011;25036;53.638;10.134;2023-04-24T04:15:42;1.77;;;0.90;;
39322;SDS011;25036;53.638;10.134;2023-04-24T04:16:42;1.25;;;0.80;;
39322;SDS011;25036;53.638;10.134;2023-04-24T04:17:42;0.75;;;0.70;;
39322;SDS011;25036;53.638;10.134;2023-04-24T04:18:43;0.93;;;0.80;;
39322;SDS011;25036;53.638;10.134;2023-04-24T04:19:43;1.23;;;0.80;;
39322;SDS011;25036;53.638;10.134;2023-04-24T04:20:43;2.37;;;0.77;;
39322;SDS011;25036;53.638;10.134;2023-04-24T04:21:43;2.67;;;0.90;;
39322;SDS011;25036;53.638;10.134;2023-04-24T04:22:45;2.42;;;0.68;;
39322;SDS011;25036;53.638;10.134;2023-04-24T04:23:45;1.60;;;0.70;;
39322;SDS011;25036;53.638;10.134;2023-04-24T04:24:45;0.67;;;0.60;;
39322;SDS011;25036;53.638;10.134;2023-04-24T04:25:46;1.60;;;1.00;;
39322;SDS011;25036;53.638;10.134;2023-04-24T04:26:46;1.05;;;0.82;;
39322;SDS011;25036;53.638;10.134;2023-04-24T04:27:47;0.90;;;0.80;;
39322;SDS011;25036;53.638;10.134;2023-04-24T04:28:48;2.58;;;0.80;;
39322;SDS011;25036;53.638;10.134;2023-04-24T04:29:48;2.05;;;0.90;;
39322;SDS011;25036;53.638;10.134;2023-04-24T04:30:49;0.70;;;0.70;;
39322;SDS011;25036;53.638;10.134;2023-04-24T04:31:49;0.90;;;0.60;;
39322;SDS011;25036;53.638;10.134;2023-04-24T04:32:49;2.00;;;0.70;;
39322;SDS011;25036;53.638;10.134;2023-04-24T04:33:50;1.70;;;0.80;;
39322;SDS011;25036;53.638;10.134;2023-04-24T04:34:50;1.58;;;0.63;;
39322;SDS011;25036;53.638;10.134;2023-04-24T04:35:53;1.85;;;0.65;;
39322;SDS011;25036;53.638;10.134;2023-04-24T04:36:53;1.67;;;0.90;;
39322;SDS011;25036;53.638;10.134;2023-04-24T04:37:53;1.10;;;0.60;;
39322;SDS011;25036;53.638;10.134;2023-04-24T04:38:53;1.80;;;0.80;;
39322;SDS011;25036;53.638;10.134;2023-04-24T04:39:54;0.85;;;0.65;;
39322;SDS011;25036;53.638;10.134;2023-04-24T04:40:55;0.77;;;0.77;;
39322;SDS011;25036;53.638;10.134;2023-04-24T04:41:56;0.88;;;0.70;;
39322;SDS011;25036;53.638;10.134;2023-04-24T04:42:58;0.70;;;0.52;;
39322;SDS011;25036;53.638;10.134;2023-04-24T04:43:58;1.13;;;0.70;;
39322;SDS011;25036;53.638;10.134;2023-04-24T04:44:59;0.70;;;0.70;;
39322;SDS011;25036;53.638;10.134;2023-04-24T04:45:59;2.47;;;1.08;;
39322;SDS011;25036;53.638;10.134;2023-04-24T04:47:00;1.63;;;0.70;;
39322;SDS011;25036;53.638;10.134;2023-04-24T04:48:04;0.90;;;0.70;;
39322;SDS011;25036;53.638;10.134;2023-04-24T04:49:04;0.85;;;0.50;;
39322;SDS011;25036;53.638;10.134;2023-04-24T04:50:04;1.25;;;0.68;;
39322;SDS011;25036;53.638;10.134;2023-04-24T04:51:05;1.17;;;0.75;;
39322;SDS011;25036;53.638;10.134;2023-04-24T04:52:05;2.58;;;1.00;;
39322;SDS011;25036;53.638;10.134;2023-04-24T04:53:05;0.60;;;0.60;;
39322;SDS011;25036;53.638;10.134;2023-04-24T04:54:06;2.10;;;0.60;;
39322;SDS011;25036;53.638;10.134;2023-04-24T04:55:07;0.73;;;0.73;;
39322;SDS011;25036;53.638;10.134;2023-04-24T04:56:07;0.70;;;0.70;;
39322;SDS011;25036;53.638;10.134;2023-04-24T04:57:08;0.83;;;0.60;;
39322;SDS011;25036;53.638;10.134;2023-04-24T04:58:08;0.83;;;0.47;;
39322;SDS011;25036;53.638;10.134;2023-04-24T04:59:08;1.50;;;0.80;;
39322;SDS011;25036;53.638;10.134;2023-04-24T05:00:08;2.57;;;0.93;;
39322;SDS011;25036;53.638;10.134;2023-04-24T05:01:10;2.05;;;0.57;;
39322;SDS011;25036;53.638;10.134;2023-04-24T05:02:10;0.57;;;0.57;;
39322;SDS011;25036;53.638;10.134;2023-04-24T05:03:10;1.20;;;0.52;;
39322;SDS011;25036;53.638;10.134;2023-04-24T05:04:11;1.90;;;0.90;;
39322;SDS011;25036;53.638;10.134;2023-04-24T05:05:11;0.60;;;0.60;;
39322;SDS011;25036;53.638;10.134;2023-04-24T05:06:11;1.57;;;0.90;;
39322;SDS011;25036;53.638;10.134;2023-04-24T05:07:11;0.73;;;0.50;;
39322;SDS011;25036;53.638;10.134;2023-04-24T05:08:11;1.63;;;0.60;;
39322;SDS011;25036;53.638;10.134;2023-04-24T05:09:11;1.00;;;0.90;;
39322;SDS011;25036;53.638;10.134;2023-04-24T05:10:11;1.30;;;0.97;;
39322;SDS011;25036;53.638;10.134;2023-04-24T05:11:11;1.37;;;0.80;;
39322;SDS011;25036;53.638;10.134;2023-04-24T05:12:12;2.10;;;0.77;;
39322;SDS011;25036;53.638;10.134;2023-04-24T05:13:12;0.97;;;0.60;;
39322;SDS011;25036;53.638;10.134;2023-04-24T05:14:12;0.85;;;0.50;;
39322;SDS011;25036;53.638;10.134;2023-04-24T05:15:12;1.27;;;0.50;;
39322;SDS011;25036;53.638;10.134;2023-04-24T05:16:12;1.70;;;0.60;;
39322;SDS011;25036;53.638;10.134;2023-04-24T05:17:12;0.97;;;0.80;;
39322;SDS011;25036;53.638;10.134;2023-04-24T05:18:13;1.20;;;0.50;;
39322;SDS011;25036;53.638;10.134;2023-04-24T05:19:13;1.73;;;0.83;;
39322;SDS011;25036;53.638;10.134;2023-04-24T05:20:14;1.48;;;0.65;;
39322;SDS011;25036;53.638;10.134;2023-04-24T05:21:14;0.65;;;0.50;;
39322;SDS011;25036;53.638;10.134;2023-04-24T05:22:14;0.57;;;0.57;;
39322;SDS011;25036;53.638;10.134;2023-04-24T05:23:15;1.20;;;0.77;;
39322;SDS011;25036;53.638;10.134;2023-04-24T05:24:15;1.07;;;0.60;;
39322;SDS011;25036;53.638;10.134;2023-04-24T05:25:15;1.40;;;0.67;;
39322;SDS011;25036;53.638;10.134;2023-04-24T05:26:15;0.85;;;0.50;;
39322;SDS011;25036;53.638;10.134;2023-04-24T05:27:16;0.60;;;0.60;;
39322;SDS011;25036;53.638;10.134;2023-04-24T05:28:16;0.50;;;0.47;;
39322;SDS011;25036;53.638;10.134;2023-04-24T05:29:16;1.13;;;0.70;;
39322;SDS011;25036;53.638;10.134;2023-04-24T05:30:19;2.15;;;0.40;;
39322;SDS011;25036;53.638;10.134;2023-04-24T05:31:19;0.45;;;0.40;;
39322;SDS011;25036;53.638;10.134;2023-04-24T05:32:20;0.77;;;0.50;;
39322;SDS011;25036;53.638;10.134;2023-04-24T05:33:20;0.40;;;0.40;;
39322;SDS011;25036;53.638;10.134;2023-04-24T05:34:20;1.20;;;0.37;;
39322;SDS011;25036;53.638;10.134;2023-04-24T05:35:20;1.00;;;0.63;;
39322;SDS011;25036;53.638;10.134;2023-04-24T05:36:20;1.67;;;0.50;;
39322;SDS011;25036;53.638;10.134;2023-04-24T05:37:20;0.57;;;0.40;;
39322;SDS011;25036;53.638;10.134;2023-04-24T05:38:21;1.00;;;0.30;;
39322;SDS011;25036;53.638;10.134;2023-04-24T05:39:21;0.60;;;0.30;;
39322;SDS011;25036;53.638;10.134;2023-04-24T05:40:21;5.80;;;1.05;;
39322;SDS011;25036;53.638;10.134;2023-04-24T05:41:21;0.40;;;0.37;;
39322;SDS011;25036;53.638;10.134;2023-04-24T05:42:22;0.43;;;0.20;;
39322;SDS011;25036;53.638;10.134;2023-04-24T05:43:22;0.57;;;0.47;;
39322;SDS011;25036;53.638;10.134;2023-04-24T05:44:22;0.40;;;0.40;;
39322;SDS011;25036;53.638;10.134;2023-04-24T05:45:22;0.68;;;0.47;;
39322;SDS011;25036;53.638;10.134;2023-04-24T05:46:23;0.87;;;0.50;;
39322;SDS011;25036;53.638;10.134;2023-04-24T05:47:23;1.17;;;0.52;;
39322;SDS011;25036;53.638;10.134;2023-04-24T05:48:23;0.47;;;0.23;;
39322;SDS011;25036;53.638;10.134;2023-04-24T05:49:23;0.40;;;0.33;;
39322;SDS011;25036;53.638;10.134;2023-04-24T05:50:23;0.50;;;0.40;;
39322;SDS011;25036;53.638;10.134;2023-04-24T05:51:23;1.40;;;0.40;;
39322;SDS011;25036;53.638;10.134;2023-04-24T05:52:24;0.95;;;0.40;;
39322;SDS011;25036;53.638;10.134;2023-04-24T05:53:24;1.37;;;0.30;;
39322;SDS011;25036;53.638;10.134;2023-04-24T05:54:24;0.50;;;0.40;;
39322;SDS011;25036;53.638;10.134;2023-04-24T05:55:25;0.45;;;0.30;;
39322;SDS011;25036;53.638;10.134;2023-04-24T05:56:25;2.33;;;0.30;;
39322;SDS011;25036;53.638;10.134;2023-04-24T05:57:25;0.70;;;0.40;;
39322;SDS011;25036;53.638;10.134;2023-04-24T05:58:25;0.70;;;0.33;;